Time;durP1;ratioP1;P1;durP2;ratioP2;P2;SDS_P1;SDS_P2;PMS_P1;PMS_P2;Temp;Humidity;BMP_temperature;BMP_pressure;BME280_temperature;BME280_humidity;BME280_pressure;Samples;Min_cycle;Max_cycle;Signal;HPM_P1;HPM_P2
2022/06/05 00:00:11;;;;;;;;;;;;;;;;;;4976759;28;19941;-65
2022/06/05 00:02:36;;;;;;;;;;;;;;;;;;4968319;28;20464;-63
2022/06/05 00:05:01;;;;;;;;;;;;;;;;;;4974167;28;19919;-64
2022/06/05 00:07:26;;;;;;;;;;;;;;;;;;4972265;28;20040;-64
2022/06/05 00:09:52;;;;;;;;;;;;;;;;;;4970986;28;20043;-64
2022/06/05 00:12:18;;;;;;;;;;;;;;;;;;4975623;28;19926;-64
2022/06/05 00:14:43;;;;;;;;;;;;;;;;;;4967828;28;19922;-64
2022/06/05 00:17:09;;;;;;;;;;;;;;;;;;4971352;28;20676;-64
2022/06/05 00:19:34;;;;;;;;;;;;;;;;;;4969428;28;20272;-64
2022/06/05 00:21:59;;;;;;;;;;;;;;;;;;4956171;28;20636;-64
2022/06/05 00:24:24;;;;;;;;;;;;;;;;;;4974820;28;19925;-64
2022/06/05 00:26:50;;;;;;;;;;;;;;;;;;4955677;28;19918;-65
2022/06/05 00:29:16;;;;;;;;;;;;;;;;;;4959986;28;19968;-65
2022/06/05 00:31:41;;;;;;;;;;;;;;;;;;4972246;28;20374;-64
2022/06/05 00:34:06;;;;;;;;;;;;;;;;;;4969787;28;20491;-64
2022/06/05 00:36:32;;;;;;;;;;;;;;;;;;4977328;28;19967;-64
2022/06/05 00:38:57;;;;;;;;;;;;;;;;;;4970643;28;19944;-64
2022/06/05 00:41:22;;;;;;;;;;;;;;;;;;4962687;28;19921;-64
2022/06/05 00:43:47;;;;;;;;;;;;;;;;;;4974321;28;19976;-64
2022/06/05 00:46:13;;;;;;;;;;;;;;;;;;4973317;28;20021;-64
2022/06/05 00:48:39;;;;;;;;;;;;;;;;;;4978677;28;19944;-64
2022/06/05 00:51:04;;;;;;;;;;;;;;;;;;4971244;28;19929;-64
2022/06/05 00:53:29;;;;;;;;;;;;;;;;;;4977476;28;20500;-64
2022/06/05 00:55:54;;;;;;;;;;;;;;;;;;4975223;28;20398;-63
2022/06/05 00:58:19;;;;;;;;;;;;;;;;;;4975690;28;19922;-64
2022/06/05 01:00:45;;;;;;;;;;;;;;;;;;4981160;28;19918;-64
2022/06/05 01:03:10;;;;;;;;;;;;;;;;;;4975731;28;20040;-64
2022/06/05 01:05:35;;;;;;;;;;;;;;;;;;4978149;28;19926;-64
2022/06/05 01:08:00;;;;;;;;;;;;;;;;;;4976210;28;20258;-65
2022/06/05 01:10:26;;;;;;;;;;;;;;;;;;4975017;28;19917;-65
2022/06/05 01:12:51;;;;;;;;;;;;;;;;;;4965432;28;19918;-64
2022/06/05 01:15:16;;;;;;;;;;;;;;;;;;4974402;28;19918;-64
2022/06/05 01:17:41;;;;;;;;;;;;;;;;;;4977646;28;20858;-64
2022/06/05 01:20:07;;;;;;;;;;;;;;;;;;4964565;28;20454;-64
2022/06/05 01:22:32;;;;;;;;;;;;;;;;;;4960001;28;19925;-64
2022/06/05 01:24:57;;;;;;;;;;;;;;;;;;4980669;28;19926;-64
2022/06/05 01:27:22;;;;;;;;;;;;;;;;;;4976797;28;20411;-64
2022/06/05 01:29:48;;;;;;;;;;;;;;;;;;4962493;28;19980;-64
2022/06/05 01:32:13;;;;;;;;;;;;;;;;;;4975870;28;20453;-65
2022/06/05 01:34:39;;;;;;;;;;;;;;;;;;4976570;28;20326;-64
2022/06/05 01:37:04;;;;;;;;;;;;;;;;;;4979419;28;19926;-64
2022/06/05 01:39:29;;;;;;;;;;;;;;;;;;4959541;28;19918;-64
2022/06/05 01:41:54;;;;;;;;;;;;;;;;;;4973540;28;20871;-64
2022/06/05 01:44:19;;;;;;;;;;;;;;;;;;4963256;28;20441;-64
2022/06/05 01:46:45;;;;;;;;;;;;;;;;;;4974484;28;19926;-63
2022/06/05 01:49:10;;;;;;;;;;;;;;;;;;4975289;28;19918;-64
2022/06/05 01:51:35;;;;;;;;;;;;;;;;;;4962699;28;19980;-64
2022/06/05 01:54:00;;;;;;;;;;;;;;;;;;4979611;28;19925;-64
2022/06/05 01:56:25;;;;;;;;;;;;;;;;;;4965504;28;20360;-64
2022/06/05 01:58:51;;;;;;;;;;;;;;;;;;4958965;28;20294;-64
2022/06/05 02:01:16;;;;;;;;;;;;;;;;;;4979854;28;20389;-64
2022/06/05 02:03:41;;;;;;;;;;;;;;;;;;4975787;28;19922;-63
2022/06/05 02:06:07;;;;;;;;;;;;;;;;;;4977661;28;19922;-64
2022/06/05 02:08:32;;;;;;;;;;;;;;;;;;4964362;28;19929;-63
2022/06/05 02:10:57;;;;;;;;;;;;;;;;;;4977068;28;19918;-64
2022/06/05 02:13:22;;;;;;;;;;;;;;;;;;4978035;28;19928;-64
2022/06/05 02:15:48;;;;;;;;;;;;;;;;;;4975360;28;19924;-64
2022/06/05 02:18:13;;;;;;;;;;;;;;;;;;4973060;28;19922;-65
2022/06/05 02:20:38;;;;;;;;;;;;;;;;;;4980545;28;19996;-63
2022/06/05 02:23:03;;;;;;;;;;;;;;;;;;4973364;28;19925;-64
2022/06/05 02:25:30;;;;;;;;;;;;;;;;;;4982050;28;19922;-63
2022/06/05 02:27:55;;;;;;;;;;;;;;;;;;4970522;28;19918;-63
2022/06/05 02:30:21;;;;;;;;;;;;;;;;;;4972823;28;20342;-64
2022/06/05 02:32:46;;;;;;;;;;;;;;;;;;4976487;28;19914;-63
2022/06/05 02:35:11;;;;;;;;;;;;;;;;;;4972911;28;19917;-63
2022/06/05 02:37:36;;;;;;;;;;;;;;;;;;4964056;28;19914;-64
2022/06/05 02:40:02;;;;;;;;;;;;;;;;;;4956692;28;19925;-64
2022/06/05 02:42:28;;;;;;;;;;;;;;;;;;4973037;28;19924;-65
2022/06/05 02:44:53;;;;;;;;;;;;;;;;;;4978131;28;19918;-64
2022/06/05 02:47:18;;;;;;;;;;;;;;;;;;4972202;28;19918;-64
2022/06/05 02:49:43;;;;;;;;;;;;;;;;;;4978356;28;19918;-64
2022/06/05 02:52:09;;;;;;;;;;;;;;;;;;4974552;28;19921;-66
2022/06/05 02:54:34;;;;;;;;;;;;;;;;;;4972844;28;19922;-63
2022/06/05 02:56:59;;;;;;;;;;;;;;;;;;4978648;28;20397;-64
2022/06/05 02:59:24;;;;;;;;;;;;;;;;;;4973942;28;19918;-64
2022/06/05 03:04:33;;;;;;;;;;;;;;;;;;4972895;28;19957;-64
2022/06/05 03:06:59;;;;;;;;;;;;;;;;;;4975590;28;20338;-63
2022/06/05 03:09:24;;;;;;;;;;;;;;;;;;4980407;28;19921;-64
2022/06/05 03:11:49;;;;;;;;;;;;;;;;;;4974103;28;19917;-63
2022/06/05 03:14:14;;;;;;;;;;;;;;;;;;4976422;28;19918;-64
2022/06/05 03:16:40;;;;;;;;;;;;;;;;;;4971188;28;20370;-63
2022/06/05 03:19:05;;;;;;;;;;;;;;;;;;4972776;28;20428;-63
2022/06/05 03:21:30;;;;;;;;;;;;;;;;;;4976162;28;20370;-63
2022/06/05 03:23:55;;;;;;;;;;;;;;;;;;4974298;28;20689;-63
2022/06/05 03:26:22;;;;;;;;;;;;;;;;;;4979428;28;19965;-63
2022/06/05 03:28:47;;;;;;;;;;;;;;;;;;4969516;28;19964;-64
2022/06/05 03:31:12;;;;;;;;;;;;;;;;;;4960379;28;19918;-64
2022/06/05 03:33:37;;;;;;;;;;;;;;;;;;4974996;28;19928;-63
2022/06/05 03:36:03;;;;;;;;;;;;;;;;;;4960066;28;19922;-64
2022/06/05 03:38:28;;;;;;;;;;;;;;;;;;4979117;28;19927;-64
2022/06/05 03:40:54;;;;;;;;;;;;;;;;;;4973649;28;19922;-63
2022/06/05 03:43:19;;;;;;;;;;;;;;;;;;4970799;28;19933;-63
2022/06/05 03:45:44;;;;;;;;;;;;;;;;;;4978793;28;19949;-63
2022/06/05 03:48:09;;;;;;;;;;;;;;;;;;4970865;28;20005;-65
2022/06/05 03:50:35;;;;;;;;;;;;;;;;;;4965433;28;19924;-64
2022/06/05 03:53:00;;;;;;;;;;;;;;;;;;4969857;28;19918;-63
2022/06/05 03:55:25;;;;;;;;;;;;;;;;;;4952097;28;20052;-63
2022/06/05 03:57:51;;;;;;;;;;;;;;;;;;4978963;28;19925;-64
2022/06/05 04:00:16;;;;;;;;;;;;;;;;;;4968356;28;20247;-64
2022/06/05 04:02:42;;;;;;;;;;;;;;;;;;4978352;28;19918;-63
2022/06/05 04:05:07;;;;;;;;;;;;;;;;;;4974658;28;20001;-63
2022/06/05 04:07:32;;;;;;;;;;;;;;;;;;4973041;28;19945;-63
2022/06/05 04:09:57;;;;;;;;;;;;;;;;;;4976881;28;19922;-62
2022/06/05 04:12:22;;;;;;;;;;;;;;;;;;4970464;28;19921;-62
2022/06/05 04:14:48;;;;;;;;;;;;;;;;;;4978786;28;20409;-63
2022/06/05 04:17:13;;;;;;;;;;;;;;;;;;4970646;28;20456;-63
2022/06/05 04:19:38;;;;;;;;;;;;;;;;;;4970059;28;19917;-62
2022/06/05 04:22:04;;;;;;;;;;;;;;;;;;4977580;28;20540;-63
2022/06/05 04:24:29;;;;;;;;;;;;;;;;;;4970387;28;19980;-63
2022/06/05 04:26:54;;;;;;;;;;;;;;;;;;4979175;28;20392;-62
2022/06/05 04:29:19;;;;;;;;;;;;;;;;;;4974764;28;19974;-63
2022/06/05 04:31:45;;;;;;;;;;;;;;;;;;4977126;28;19914;-63
2022/06/05 04:34:10;;;;;;;;;;;;;;;;;;4979217;28;20342;-62
2022/06/05 04:36:36;;;;;;;;;;;;;;;;;;4963121;28;20394;-62
2022/06/05 04:39:01;;;;;;;;;;;;;;;;;;4985791;28;19918;-63
2022/06/05 04:41:26;;;;;;;;;;;;;;;;;;4975355;28;19965;-63
2022/06/05 04:43:51;;;;;;;;;;;;;;;;;;4975421;28;19984;-63
2022/06/05 04:46:16;;;;;;;;;;;;;;;;;;4978163;28;19957;-63
2022/06/05 04:48:42;;;;;;;;;;;;;;;;;;4974775;28;20012;-63
2022/06/05 04:51:07;;;;;;;;;;;;;;;;;;4984765;28;19918;-63
2022/06/05 04:53:32;;;;;;;;;;;;;;;;;;4975256;28;19928;-63
2022/06/05 04:55:57;;;;;;;;;;;;;;;;;;4973335;28;19924;-63
2022/06/05 04:58:23;;;;;;;;;;;;;;;;;;4976969;28;19921;-63
2022/06/05 05:00:48;;;;;;;;;;;;;;;;;;4945240;28;19918;-63
2022/06/05 05:03:13;;;;;;;;;;;;;;;;;;4959441;28;19961;-64
2022/06/05 05:05:38;;;;;;;;;;;;;;;;;;4971226;28;19921;-63
2022/06/05 05:08:03;;;;;;;;;;;;;;;;;;4970559;28;20384;-64
2022/06/05 05:10:29;;;;;;;;;;;;;;;;;;4982884;28;19921;-65
2022/06/05 05:12:54;;;;;;;;;;;;;;;;;;4963959;28;19941;-64
2022/06/05 05:15:19;;;;;;;;;;;;;;;;;;4978012;28;20325;-63
2022/06/05 05:17:44;;;;;;;;;;;;;;;;;;4974558;28;20000;-63
2022/06/05 05:20:10;;;;;;;;;;;;;;;;;;4976478;28;19918;-63
2022/06/05 05:22:38;;;;;;;;;;;;;;;;;;4980325;28;19917;-63
2022/06/05 05:25:03;;;;;;;;;;;;;;;;;;4974790;28;20286;-63
2022/06/05 05:27:28;;;;;;;;;;;;;;;;;;4978165;28;20375;-63
2022/06/05 05:29:53;;;;;;;;;;;;;;;;;;4973808;28;20048;-63
2022/06/05 05:32:19;;;;;;;;;;;;;;;;;;4975082;28;19918;-63
2022/06/05 05:34:44;;;;;;;;;;;;;;;;;;4979329;28;19929;-63
2022/06/05 05:37:09;;;;;;;;;;;;;;;;;;4973518;28;19918;-63
2022/06/05 05:42:19;;;;;;;;;;;;;;;;;;4976469;28;19917;-63
2022/06/05 05:44:44;;;;;;;;;;;;;;;;;;4972314;28;19928;-63
2022/06/05 05:47:09;;;;;;;;;;;;;;;;;;4979508;28;19918;-64
2022/06/05 05:49:34;;;;;;;;;;;;;;;;;;4973362;28;19922;-63
2022/06/05 05:52:00;;;;;;;;;;;;;;;;;;4974506;28;19977;-64
2022/06/05 05:54:25;;;;;;;;;;;;;;;;;;4982033;28;19918;-63
2022/06/05 05:56:51;;;;;;;;;;;;;;;;;;4977279;28;20004;-63
2022/06/05 05:59:16;;;;;;;;;;;;;;;;;;4977738;28;19918;-63
2022/06/05 06:01:42;;;;;;;;;;;;;;;;;;4972747;28;19918;-63
2022/06/05 06:04:07;;;;;;;;;;;;;;;;;;4977105;28;19921;-63
2022/06/05 06:06:32;;;;;;;;;;;;;;;;;;4979199;28;19929;-62
2022/06/05 06:08:58;;;;;;;;;;;;;;;;;;4973080;28;19918;-62
2022/06/05 06:11:24;;;;;;;;;;;;;;;;;;4979123;28;19921;-63
2022/06/05 06:13:49;;;;;;;;;;;;;;;;;;4976489;28;19918;-63
2022/06/05 06:16:14;;;;;;;;;;;;;;;;;;4973269;28;20450;-63
2022/06/05 06:18:39;;;;;;;;;;;;;;;;;;4980710;28;20461;-62
2022/06/05 06:21:04;;;;;;;;;;;;;;;;;;4973097;28;20394;-63
2022/06/05 06:23:30;;;;;;;;;;;;;;;;;;4979647;28;20020;-62
2022/06/05 06:25:55;;;;;;;;;;;;;;;;;;4972345;28;20028;-63
2022/06/05 06:28:20;;;;;;;;;;;;;;;;;;4971682;28;20008;-63
2022/06/05 06:30:45;;;;;;;;;;;;;;;;;;4978451;28;19933;-62
2022/06/05 06:33:11;;;;;;;;;;;;;;;;;;4970629;28;19937;-63
2022/06/05 06:35:36;;;;;;;;;;;;;;;;;;4978160;28;19964;-62
2022/06/05 06:38:01;;;;;;;;;;;;;;;;;;4970552;28;20001;-63
2022/06/05 06:40:26;;;;;;;;;;;;;;;;;;4971719;28;19917;-63
2022/06/05 06:42:52;;;;;;;;;;;;;;;;;;4980533;28;20321;-63
2022/06/05 06:45:18;;;;;;;;;;;;;;;;;;4968883;28;19922;-63
2022/06/05 06:47:44;;;;;;;;;;;;;;;;;;4978847;28;20586;-63
2022/06/05 06:50:09;;;;;;;;;;;;;;;;;;4973275;28;20964;-63
2022/06/05 06:52:34;;;;;;;;;;;;;;;;;;4953470;28;19921;-63
2022/06/05 06:54:59;;;;;;;;;;;;;;;;;;4976491;28;19914;-63
2022/06/05 06:57:24;;;;;;;;;;;;;;;;;;4971186;28;20840;-63
2022/06/05 06:59:50;;;;;;;;;;;;;;;;;;4976765;28;20659;-63
2022/06/05 07:02:15;;;;;;;;;;;;;;;;;;4957490;28;20294;-64
2022/06/05 07:04:40;;;;;;;;;;;;;;;;;;4953522;28;19964;-64
2022/06/05 07:07:05;;;;;;;;;;;;;;;;;;4975849;28;19941;-64
2022/06/05 07:09:32;;;;;;;;;;;;;;;;;;4970163;28;19930;-63
2022/06/05 07:11:57;;;;;;;;;;;;;;;;;;4980636;28;19918;-63
2022/06/05 07:14:23;;;;;;;;;;;;;;;;;;4974178;28;19940;-63
2022/06/05 07:16:49;;;;;;;;;;;;;;;;;;4974684;28;20851;-63
2022/06/05 07:19:14;;;;;;;;;;;;;;;;;;4977135;28;20390;-63
2022/06/05 07:21:39;;;;;;;;;;;;;;;;;;4974474;28;19918;-64
2022/06/05 07:24:05;;;;;;;;;;;;;;;;;;4974995;28;19922;-64
2022/06/05 07:26:30;;;;;;;;;;;;;;;;;;4969072;28;19963;-64
2022/06/05 07:28:56;;;;;;;;;;;;;;;;;;4974927;28;19960;-64
2022/06/05 07:31:21;;;;;;;;;;;;;;;;;;4977538;28;20697;-64
2022/06/05 07:33:46;;;;;;;;;;;;;;;;;;4973728;28;19972;-64
2022/06/05 07:36:11;;;;;;;;;;;;;;;;;;4977427;28;19918;-64
2022/06/05 07:38:37;;;;;;;;;;;;;;;;;;4971613;28;19918;-64
2022/06/05 07:41:02;;;;;;;;;;;;;;;;;;4971012;28;19972;-64
2022/06/05 07:43:27;;;;;;;;;;;;;;;;;;4977833;28;19930;-64
2022/06/05 07:45:52;;;;;;;;;;;;;;;;;;4969887;28;19933;-64
2022/06/05 07:48:19;;;;;;;;;;;;;;;;;;4973623;28;20275;-64
2022/06/05 07:56:12;;;;;;;;;;;;;;;;;;4978817;28;20268;-65
2022/06/05 07:58:38;;;;;;;;;;;;;;;;;;4973397;28;20381;-64
2022/06/05 08:01:03;;;;;;;;;;;;;;;;;;4971008;28;19925;-64
2022/06/05 08:03:28;;;;;;;;;;;;;;;;;;4959129;28;20395;-64
2022/06/05 08:05:53;;;;;;;;;;;;;;;;;;4943638;28;20397;-64
2022/06/05 08:08:19;;;;;;;;;;;;;;;;;;4976029;28;19921;-64
2022/06/05 08:10:44;;;;;;;;;;;;;;;;;;4971380;28;20417;-64
2022/06/05 08:13:09;;;;;;;;;;;;;;;;;;4971143;28;19925;-65
2022/06/05 08:15:34;;;;;;;;;;;;;;;;;;4973515;28;19922;-64
2022/06/05 08:18:00;;;;;;;;;;;;;;;;;;4972054;28;20556;-64
2022/06/05 08:20:25;;;;;;;;;;;;;;;;;;4960759;28;19995;-64
2022/06/05 08:22:51;;;;;;;;;;;;;;;;;;4972029;28;20025;-64
2022/06/05 08:25:16;;;;;;;;;;;;;;;;;;4960733;28;19925;-65
2022/06/05 08:27:41;;;;;;;;;;;;;;;;;;4946425;28;19969;-64
2022/06/05 08:30:07;;;;;;;;;;;;;;;;;;4950773;28;19922;-65
2022/06/05 08:32:32;;;;;;;;;;;;;;;;;;4958710;28;19926;-64
2022/06/05 08:34:57;;;;;;;;;;;;;;;;;;4952188;28;19918;-64
2022/06/05 08:42:51;;;;;;;;;;;;;;;;;;4951843;28;20117;-65
2022/06/05 08:45:18;;;;;;;;;;;;;;;;;;4956601;28;23062;-64
2022/06/05 08:47:44;;;;;;;;;;;;;;;;;;4953467;28;20329;-65
2022/06/05 08:50:09;;;;;;;;;;;;;;;;;;4971332;28;19914;-65
2022/06/05 08:52:34;;;;;;;;;;;;;;;;;;4954595;28;19922;-66
2022/06/05 08:55:00;;;;;;;;;;;;;;;;;;4950770;28;19918;-68
2022/06/05 08:57:26;;;;;;;;;;;;;;;;;;4954336;28;19924;-65
2022/06/05 08:59:52;;;;;;;;;;;;;;;;;;4950113;28;19925;-66
2022/06/05 09:02:17;;;;;;;;;;;;;;;;;;4948881;28;20077;-67
2022/06/05 09:04:42;;;;;;;;;;;;;;;;;;4954800;28;19923;-66
2022/06/05 09:07:08;;;;;;;;;;;;;;;;;;4949252;28;20009;-66
2022/06/05 09:09:33;;;;;;;;;;;;;;;;;;4948932;28;19919;-66
2022/06/05 09:11:58;;;;;;;;;;;;;;;;;;4948003;28;20053;-67
2022/06/05 09:14:23;;;;;;;;;;;;;;;;;;4945401;28;20516;-65
2022/06/05 09:16:50;;;;;;;;;;;;;;;;;;4955332;28;19918;-65
2022/06/05 09:19:16;;;;;;;;;;;;;;;;;;4954179;28;20676;-65
2022/06/05 09:21:42;;;;;;;;;;;;;;;;;;4953477;28;19918;-66
2022/06/05 09:24:08;;;;;;;;;;;;;;;;;;4959813;28;19977;-66
2022/06/05 09:26:34;;;;;;;;;;;;;;;;;;4950363;28;20041;-65
2022/06/05 09:28:59;;;;;;;;;;;;;;;;;;4956347;28;20361;-66
2022/06/05 09:31:24;;;;;;;;;;;;;;;;;;4952390;28;20669;-66
2022/06/05 09:33:49;;;;;;;;;;;;;;;;;;4950821;28;20017;-65
2022/06/05 09:36:15;;;;;;;;;;;;;;;;;;4954965;28;20351;-65
2022/06/05 09:38:40;;;;;;;;;;;;;;;;;;4948886;28;19915;-66
2022/06/05 09:41:06;;;;;;;;;;;;;;;;;;4954697;28;19922;-65
2022/06/05 09:43:31;;;;;;;;;;;;;;;;;;4953621;28;19976;-66
2022/06/05 09:45:56;;;;;;;;;;;;;;;;;;4947934;28;20033;-66
2022/06/05 09:48:21;;;;;;;;;;;;;;;;;;4955838;28;19918;-66
2022/06/05 09:50:47;;;;;;;;;;;;;;;;;;4952203;28;20485;-66
2022/06/05 09:53:13;;;;;;;;;;;;;;;;;;4971857;28;20290;-66
2022/06/05 09:55:39;;;;;;;;;;;;;;;;;;4955720;28;19922;-66
2022/06/05 10:00:49;;;;;;;;;;;;;;;;;;4956361;28;19918;-66
2022/06/05 10:03:14;;;;;;;;;;;;;;;;;;4944750;28;19927;-66
2022/06/05 10:05:40;;;;;;;;;;;;;;;;;;4954095;28;19937;-65
2022/06/05 10:08:05;;;;;;;;;;;;;;;;;;4952470;28;19937;-66
2022/06/05 10:10:31;;;;;;;;;;;;;;;;;;4949467;28;19922;-66
2022/06/05 10:12:56;;;;;;;;;;;;;;;;;;4959028;28;20032;-65
2022/06/05 10:15:21;;;;;;;;;;;;;;;;;;4952148;28;19919;-66
2022/06/05 10:17:46;;;;;;;;;;;;;;;;;;4954273;28;19919;-65
2022/06/05 10:20:12;;;;;;;;;;;;;;;;;;4949683;28;20198;-65
2022/06/05 10:22:38;;;;;;;;;;;;;;;;;;4949126;28;19925;-66
2022/06/05 10:25:03;;;;;;;;;;;;;;;;;;4955417;28;20190;-65
2022/06/05 10:27:28;;;;;;;;;;;;;;;;;;4946150;28;19918;-66
2022/06/05 10:29:53;;;;;;;;;;;;;;;;;;4953686;28;19914;-65
2022/06/05 10:32:19;;;;;;;;;;;;;;;;;;4947932;28;19957;-66
2022/06/05 10:34:44;;;;;;;;;;;;;;;;;;4945018;28;19968;-66
2022/06/05 10:37:09;;;;;;;;;;;;;;;;;;4952225;28;19930;-66
2022/06/05 10:39:35;;;;;;;;;;;;;;;;;;4946181;28;19978;-64
2022/06/05 10:42:00;;;;;;;;;;;;;;;;;;4951662;28;20283;-65
2022/06/05 10:44:26;;;;;;;;;;;;;;;;;;4935275;28;20282;-65
2022/06/05 10:46:51;;;;;;;;;;;;;;;;;;4946576;28;20454;-65
2022/06/05 10:49:17;;;;;;;;;;;;;;;;;;4952813;28;20189;-66
2022/06/05 10:51:42;;;;;;;;;;;;;;;;;;4946186;28;20486;-66
2022/06/05 10:54:08;;;;;;;;;;;;;;;;;;4951230;28;19953;-66
2022/06/05 10:56:33;;;;;;;;;;;;;;;;;;4960609;28;19925;-65
2022/06/05 10:58:59;;;;;;;;;;;;;;;;;;4946050;28;19922;-65
2022/06/05 11:01:24;;;;;;;;;;;;;;;;;;4954487;28;19929;-64
2022/06/05 11:03:49;;;;;;;;;;;;;;;;;;4947772;28;20385;-65
2022/06/05 11:06:15;;;;;;;;;;;;;;;;;;4968421;28;20391;-65
2022/06/05 11:08:40;;;;;;;;;;;;;;;;;;4946582;28;19919;-65
2022/06/05 11:13:51;;;;;;;;;;;;;;;;;;4953631;28;20008;-65
2022/06/05 11:16:16;;;;;;;;;;;;;;;;;;4946800;28;19918;-65
2022/06/05 11:18:42;;;;;;;;;;;;;;;;;;4945666;28;19953;-65
2022/06/05 11:21:07;;;;;;;;;;;;;;;;;;4966986;28;20057;-64
2022/06/05 11:23:32;;;;;;;;;;;;;;;;;;4947322;28;19926;-64
2022/06/05 11:25:59;;;;;;;;;;;;;;;;;;4953834;28;19926;-64
2022/06/05 11:28:24;;;;;;;;;;;;;;;;;;4946867;28;20021;-65
2022/06/05 11:30:49;;;;;;;;;;;;;;;;;;4946501;28;19918;-64
2022/06/05 11:33:15;;;;;;;;;;;;;;;;;;4954337;28;19930;-64
2022/06/05 11:35:40;;;;;;;;;;;;;;;;;;4963627;28;19918;-65
2022/06/05 11:38:05;;;;;;;;;;;;;;;;;;4971271;28;20663;-64
2022/06/05 11:40:30;;;;;;;;;;;;;;;;;;4948265;28;19925;-64
2022/06/05 11:42:56;;;;;;;;;;;;;;;;;;4948396;28;20287;-65
2022/06/05 11:45:21;;;;;;;;;;;;;;;;;;4960079;28;19918;-65
2022/06/05 11:47:46;;;;;;;;;;;;;;;;;;4952963;28;19926;-65
2022/06/05 11:50:12;;;;;;;;;;;;;;;;;;4952341;28;20335;-66
2022/06/05 11:52:38;;;;;;;;;;;;;;;;;;4947733;28;20182;-65
2022/06/05 11:55:04;;;;;;;;;;;;;;;;;;4948722;28;20295;-65
2022/06/05 11:57:29;;;;;;;;;;;;;;;;;;4955106;28;19918;-65
2022/06/05 11:59:54;;;;;;;;;;;;;;;;;;4950299;28;20430;-65
2022/06/05 12:02:22;;;;;;;;;;;;;;;;;;4955295;28;19953;-64
2022/06/05 12:04:47;;;;;;;;;;;;;;;;;;4949264;28;19997;-65
2022/06/05 12:07:12;;;;;;;;;;;;;;;;;;4951447;28;19918;-65
2022/06/05 12:09:38;;;;;;;;;;;;;;;;;;4970157;28;19922;-66
2022/06/05 12:12:03;;;;;;;;;;;;;;;;;;4946726;28;19953;-66
2022/06/05 12:14:29;;;;;;;;;;;;;;;;;;4957402;28;20007;-65
2022/06/05 12:16:54;;;;;;;;;;;;;;;;;;4952558;28;19953;-65
2022/06/05 12:19:19;;;;;;;;;;;;;;;;;;4945776;28;19918;-66
2022/06/05 12:21:44;;;;;;;;;;;;;;;;;;4952568;28;19922;-66
2022/06/05 12:24:10;;;;;;;;;;;;;;;;;;4948465;28;19937;-66
2022/06/05 12:26:35;;;;;;;;;;;;;;;;;;4953038;28;20268;-66
2022/06/05 12:29:00;;;;;;;;;;;;;;;;;;4946859;28;19918;-65
2022/06/05 12:31:26;;;;;;;;;;;;;;;;;;4945553;28;20282;-66
2022/06/05 12:33:51;;;;;;;;;;;;;;;;;;4951205;28;19918;-66
2022/06/05 12:36:17;;;;;;;;;;;;;;;;;;4946647;28;20354;-65
2022/06/05 12:38:42;;;;;;;;;;;;;;;;;;4952414;28;19918;-64
2022/06/05 12:41:07;;;;;;;;;;;;;;;;;;4949037;28;19928;-64
2022/06/05 12:43:32;;;;;;;;;;;;;;;;;;4947988;28;19986;-66
2022/06/05 12:45:58;;;;;;;;;;;;;;;;;;4952981;28;19953;-66
2022/06/05 12:48:23;;;;;;;;;;;;;;;;;;4947371;28;19922;-65
2022/06/05 12:50:48;;;;;;;;;;;;;;;;;;4907449;28;20576;-67
2022/06/05 12:53:14;;;;;;;;;;;;;;;;;;4938797;28;20548;-68
2022/06/05 12:55:41;;;;;;;;;;;;;;;;;;4941367;28;19925;-67
2022/06/05 12:58:07;;;;;;;;;;;;;;;;;;4943379;28;19921;-68
2022/06/05 13:00:32;;;;;;;;;;;;;;;;;;4937891;28;19949;-68
2022/06/05 13:02:57;;;;;;;;;;;;;;;;;;4958325;28;20089;-68
2022/06/05 13:05:22;;;;;;;;;;;;;;;;;;4951478;28;19931;-68
2022/06/05 13:07:49;;;;;;;;;;;;;;;;;;4948331;28;19926;-66
2022/06/05 13:10:14;;;;;;;;;;;;;;;;;;4957251;28;19918;-67
2022/06/05 13:12:39;;;;;;;;;;;;;;;;;;4967545;28;20415;-67
2022/06/05 13:15:04;;;;;;;;;;;;;;;;;;4957049;28;19958;-67
2022/06/05 13:17:29;;;;;;;;;;;;;;;;;;4951987;28;19918;-68
2022/06/05 13:19:55;;;;;;;;;;;;;;;;;;4950379;28;20272;-68
2022/06/05 13:22:20;;;;;;;;;;;;;;;;;;4971324;28;19918;-67
2022/06/05 13:24:45;;;;;;;;;;;;;;;;;;4952345;28;19930;-67
2022/06/05 13:27:10;;;;;;;;;;;;;;;;;;4971991;28;20335;-67
2022/06/05 13:29:36;;;;;;;;;;;;;;;;;;4967231;28;19988;-68
2022/06/05 13:32:01;;;;;;;;;;;;;;;;;;4954569;28;20016;-67
2022/06/05 13:34:26;;;;;;;;;;;;;;;;;;4958843;28;20282;-68
2022/06/05 13:36:52;;;;;;;;;;;;;;;;;;4951262;28;20601;-67
2022/06/05 13:39:19;;;;;;;;;;;;;;;;;;4956176;28;20632;-68
2022/06/05 13:41:44;;;;;;;;;;;;;;;;;;4950342;28;20442;-68
2022/06/05 13:44:09;;;;;;;;;;;;;;;;;;4935092;28;19930;-69
2022/06/05 13:46:34;;;;;;;;;;;;;;;;;;4954898;28;19929;-69
2022/06/05 13:49:00;;;;;;;;;;;;;;;;;;4950262;28;20793;-67
2022/06/05 13:51:25;;;;;;;;;;;;;;;;;;4954954;28;19922;-67
2022/06/05 13:53:51;;;;;;;;;;;;;;;;;;4951487;28;19921;-68
2022/06/05 13:56:16;;;;;;;;;;;;;;;;;;4953560;28;20186;-68
2022/06/05 13:58:44;;;;;;;;;;;;;;;;;;4943188;28;20456;-67
2022/06/05 14:01:09;;;;;;;;;;;;;;;;;;4950093;28;20331;-67
2022/06/05 14:03:35;;;;;;;;;;;;;;;;;;4968970;28;19973;-67
2022/06/05 14:06:00;;;;;;;;;;;;;;;;;;4949997;28;19922;-68
2022/06/05 14:08:25;;;;;;;;;;;;;;;;;;4928642;28;20549;-67
2022/06/05 14:10:51;;;;;;;;;;;;;;;;;;4941337;28;19926;-67
2022/06/05 14:13:16;;;;;;;;;;;;;;;;;;4950535;28;19957;-66
2022/06/05 14:15:41;;;;;;;;;;;;;;;;;;4955003;28;20329;-66
2022/06/05 14:18:06;;;;;;;;;;;;;;;;;;4966571;28;19918;-66
2022/06/05 14:20:33;;;;;;;;;;;;;;;;;;4951264;28;20386;-66
2022/06/05 14:22:58;;;;;;;;;;;;;;;;;;4956816;28;20700;-66
2022/06/05 14:25:23;;;;;;;;;;;;;;;;;;4967917;28;19926;-66
2022/06/05 14:27:48;;;;;;;;;;;;;;;;;;4956039;28;20225;-66
2022/06/05 14:30:13;;;;;;;;;;;;;;;;;;4949528;28;20307;-67
2022/06/05 14:32:39;;;;;;;;;;;;;;;;;;4948740;28;19989;-66
2022/06/05 14:35:04;;;;;;;;;;;;;;;;;;4954344;28;19950;-65
2022/06/05 14:37:29;;;;;;;;;;;;;;;;;;4949141;28;20036;-65
2022/06/05 14:39:55;;;;;;;;;;;;;;;;;;4953296;28;19922;-69
2022/06/05 14:42:20;;;;;;;;;;;;;;;;;;4948902;28;19921;-69
2022/06/05 14:44:45;;;;;;;;;;;;;;;;;;4964253;28;20354;-68
2022/06/05 14:47:10;;;;;;;;;;;;;;;;;;4956189;28;19922;-68
2022/06/05 14:49:35;;;;;;;;;;;;;;;;;;4954012;28;20404;-68
2022/06/05 14:52:01;;;;;;;;;;;;;;;;;;4959772;28;20307;-67
2022/06/05 14:57:51;;;;;;;;;;;;;;;;;;4950109;28;20890;-69
2022/06/05 14:59:55;;;;;;;;;;;;;;;;;;4955975;28;19918;-68
2022/06/05 15:02:21;;;;;;;;;;;;;;;;;;4947732;28;19937;-68
2022/06/05 15:04:47;;;;;;;;;;;;;;;;;;4949976;28;19932;-69
2022/06/05 15:07:12;;;;;;;;;;;;;;;;;;4956406;28;19945;-67
2022/06/05 15:09:37;;;;;;;;;;;;;;;;;;4952543;28;19957;-67
2022/06/05 15:12:03;;;;;;;;;;;;;;;;;;4959387;28;19918;-68
2022/06/05 15:14:28;;;;;;;;;;;;;;;;;;4951896;28;19924;-68
2022/06/05 15:16:53;;;;;;;;;;;;;;;;;;4949167;28;20704;-68
2022/06/05 15:19:18;;;;;;;;;;;;;;;;;;4955717;28;19961;-67
2022/06/05 15:21:44;;;;;;;;;;;;;;;;;;4952720;28;19922;-67
2022/06/05 15:24:10;;;;;;;;;;;;;;;;;;4958756;28;20729;-67
2022/06/05 15:26:35;;;;;;;;;;;;;;;;;;4954101;28;20211;-68
2022/06/05 15:29:00;;;;;;;;;;;;;;;;;;4952062;28;20256;-67
2022/06/05 15:31:26;;;;;;;;;;;;;;;;;;4957708;28;20296;-67
2022/06/05 15:33:53;;;;;;;;;;;;;;;;;;4950674;28;20283;-67
2022/06/05 15:36:18;;;;;;;;;;;;;;;;;;4955668;28;19918;-67
2022/06/05 15:38:44;;;;;;;;;;;;;;;;;;4950653;28;20322;-67
2022/06/05 15:41:10;;;;;;;;;;;;;;;;;;4948250;28;20079;-67
2022/06/05 15:43:35;;;;;;;;;;;;;;;;;;4954153;28;19922;-66
2022/06/05 15:46:01;;;;;;;;;;;;;;;;;;4948014;28;20462;-67
2022/06/05 15:48:26;;;;;;;;;;;;;;;;;;4952013;28;19964;-66
2022/06/05 15:50:52;;;;;;;;;;;;;;;;;;4946178;28;19929;-67
2022/06/05 15:53:19;;;;;;;;;;;;;;;;;;4948226;28;20049;-66
2022/06/05 15:55:44;;;;;;;;;;;;;;;;;;4954281;28;19922;-77
2022/06/05 15:58:19;;;;;;;;;;;;;;;;;;4949939;28;19929;-71
2022/06/05 16:00:44;;;;;;;;;;;;;;;;;;4953879;28;19918;-70
2022/06/05 16:03:10;;;;;;;;;;;;;;;;;;4952996;28;19940;-70
2022/06/05 16:05:35;;;;;;;;;;;;;;;;;;4947617;28;20013;-69
2022/06/05 16:08:01;;;;;;;;;;;;;;;;;;4954322;28;19922;-70
2022/06/05 16:10:26;;;;;;;;;;;;;;;;;;4948459;28;20500;-70
2022/06/05 16:12:51;;;;;;;;;;;;;;;;;;4956863;28;20082;-70
2022/06/05 16:15:16;;;;;;;;;;;;;;;;;;4948437;28;19925;-69
2022/06/05 16:17:42;;;;;;;;;;;;;;;;;;4951833;28;20339;-69
2022/06/05 16:20:07;;;;;;;;;;;;;;;;;;4953517;28;20025;-67
2022/06/05 16:22:32;;;;;;;;;;;;;;;;;;4947637;28;20006;-67
2022/06/05 16:24:57;;;;;;;;;;;;;;;;;;4953827;28;19976;-67
2022/06/05 16:27:22;;;;;;;;;;;;;;;;;;4951864;28;20287;-66
2022/06/05 16:29:48;;;;;;;;;;;;;;;;;;4950355;28;20059;-69
2022/06/05 16:32:13;;;;;;;;;;;;;;;;;;4956392;28;20569;-67
2022/06/05 16:40:06;;;;;;;;;;;;;;;;;;4959499;28;19945;-67
2022/06/05 16:42:31;;;;;;;;;;;;;;;;;;4953820;28;20311;-68
2022/06/05 16:44:57;;;;;;;;;;;;;;;;;;4954832;28;19930;-67
2022/06/05 16:47:22;;;;;;;;;;;;;;;;;;4951487;28;20197;-68
2022/06/05 16:49:47;;;;;;;;;;;;;;;;;;4951000;28;20005;-69
2022/06/05 16:52:12;;;;;;;;;;;;;;;;;;4958316;28;20322;-68
2022/06/05 16:54:37;;;;;;;;;;;;;;;;;;4953597;28;20298;-68
2022/06/05 16:57:12;;;;;;;;;;;;;;;;;;4958256;28;20037;-68
2022/06/05 16:59:37;;;;;;;;;;;;;;;;;;4954963;28;19950;-66
2022/06/05 17:02:02;;;;;;;;;;;;;;;;;;4953478;28;19914;-67